createdAt,value
2019-03-28T00:01:21.712Z,60.00
2019-03-28T00:05:27.131Z,60.30
2019-03-28T00:09:32.649Z,60.80
2019-03-28T00:13:39.031Z,61.50
2019-03-28T00:17:44.428Z,61.20
2019-03-28T00:21:50.100Z,61.20
2019-03-28T00:25:55.531Z,61.10
2019-03-28T00:30:00.989Z,61.30
2019-03-28T00:34:06.760Z,62.20
2019-03-28T00:38:12.217Z,63.90
2019-03-28T00:42:17.619Z,63.30
2019-03-28T00:46:22.960Z,63.60
2019-03-28T00:50:28.387Z,62.80
2019-03-28T00:54:34.051Z,63.50
2019-03-28T00:58:39.764Z,62.60
2019-03-28T01:02:46.049Z,61.80
2019-03-28T01:06:51.620Z,61.70
2019-03-28T01:10:56.904Z,62.40
2019-03-28T01:15:03.892Z,64.80
2019-03-28T01:19:09.694Z,64.50
2019-03-28T01:23:15.968Z,64.00
2019-03-28T01:27:21.416Z,63.80
2019-03-28T01:31:27.047Z,63.90
2019-03-28T01:35:32.412Z,63.80
2019-03-28T01:39:37.924Z,63.40
2019-03-28T01:43:44.674Z,63.00
2019-03-28T01:47:49.952Z,62.70
2019-03-28T01:51:56.180Z,62.50
2019-03-28T01:56:01.591Z,63.10
2019-03-28T02:00:07.780Z,63.20
2019-03-28T02:04:13.163Z,63.20
2019-03-28T02:08:18.451Z,63.00
2019-03-28T02:12:24.133Z,64.20
2019-03-28T02:16:29.424Z,63.90
2019-03-28T02:20:34.924Z,63.00
2019-03-28T02:24:40.978Z,63.00
2019-03-28T02:28:46.416Z,63.30
2019-03-28T02:32:51.863Z,63.30
2019-03-28T02:36:57.270Z,63.70
2019-03-28T02:41:02.727Z,63.30
2019-03-28T02:45:08.888Z,63.00
2019-03-28T02:49:14.249Z,63.10
2019-03-28T02:53:19.781Z,63.20
2019-03-28T02:57:40.179Z,63.60
2019-03-28T03:01:32.084Z,63.60
2019-03-28T03:05:37.449Z,63.50
2019-03-28T03:09:42.869Z,63.40
2019-03-28T03:13:48.448Z,62.60
2019-03-28T03:17:54.073Z,63.00
2019-03-28T03:21:59.641Z,63.10
2019-03-28T03:26:05.288Z,63.50
2019-03-28T03:30:11.380Z,63.60
2019-03-28T03:34:16.852Z,63.30
2019-03-28T03:38:22.203Z,63.20
2019-03-28T03:42:27.757Z,63.00
2019-03-28T03:46:33.189Z,63.00
2019-03-28T03:50:41.659Z,63.20
2019-03-28T03:54:47.200Z,62.60
2019-03-28T03:58:52.490Z,63.00
2019-03-28T04:02:57.828Z,63.20
2019-03-28T04:07:03.267Z,63.10
2019-03-28T04:11:10.084Z,63.00
2019-03-28T04:15:15.613Z,63.60
2019-03-28T04:19:21.039Z,63.80
2019-03-28T04:23:26.960Z,63.70
2019-03-28T04:27:32.334Z,63.40
2019-03-28T04:31:37.802Z,63.00
2019-03-28T04:35:43.499Z,63.70
2019-03-28T04:39:48.800Z,64.10
2019-03-28T04:43:56.064Z,63.00
2019-03-28T04:48:01.591Z,62.90
2019-03-28T04:52:07.634Z,62.90
2019-03-28T04:56:13.067Z,62.80
2019-03-28T05:00:19.655Z,62.20
2019-03-28T05:04:25.015Z,62.20
2019-03-28T05:08:30.387Z,62.90
2019-03-28T05:12:37.060Z,63.60
2019-03-28T05:16:52.588Z,63.40
2019-03-28T05:20:58.527Z,63.70
2019-03-28T05:25:04.251Z,64.10
2019-03-28T05:29:09.622Z,63.20
2019-03-28T05:33:15.041Z,62.90
2019-03-28T05:37:20.336Z,63.80
2019-03-28T05:41:25.996Z,63.20
2019-03-28T05:45:31.352Z,63.70
2019-03-28T05:49:36.940Z,63.20
2019-03-28T05:53:44.214Z,63.70
2019-03-28T05:57:49.734Z,64.00
2019-03-28T06:01:55.475Z,63.80
2019-03-28T06:06:00.909Z,63.00
2019-03-28T06:10:06.816Z,62.50
2019-03-28T06:14:12.372Z,61.90
2019-03-28T06:18:19.122Z,61.70
2019-03-28T06:22:24.798Z,61.60
2019-03-28T06:26:30.072Z,62.00
2019-03-28T06:30:35.524Z,61.60
2019-03-28T06:34:44.064Z,61.60
2019-03-28T06:38:50.234Z,61.80
2019-03-28T06:42:57.057Z,60.70
2019-03-28T06:47:02.527Z,60.40
2019-03-28T06:51:08.288Z,59.70
2019-03-28T06:55:13.744Z,59.50
2019-03-28T06:59:19.242Z,59.20
2019-03-28T07:03:24.868Z,59.20
2019-03-28T07:07:30.310Z,58.90
2019-03-28T07:11:35.900Z,58.80
2019-03-28T07:15:41.341Z,58.80
2019-03-28T07:19:46.784Z,58.20
2019-03-28T07:23:52.183Z,58.50
2019-03-28T07:27:58.050Z,58.50
2019-03-28T07:32:03.400Z,57.90
2019-03-28T07:36:08.784Z,57.50
2019-03-28T07:40:14.519Z,57.00
2019-03-28T07:44:19.951Z,57.50
2019-03-28T07:48:25.438Z,56.00
2019-03-28T07:52:30.756Z,56.10
2019-03-28T07:56:36.127Z,55.80
2019-03-28T08:00:41.581Z,55.50
2019-03-28T08:04:47.226Z,55.20
2019-03-28T08:08:52.837Z,54.20
2019-03-28T08:12:58.199Z,54.10
2019-03-28T08:17:03.564Z,54.70
2019-03-28T08:21:08.924Z,54.60
2019-03-28T08:25:15.071Z,53.90
2019-03-28T08:29:20.464Z,53.50
2019-03-28T08:33:26.569Z,53.10
2019-03-28T08:37:33.103Z,53.40
2019-03-28T08:41:38.568Z,53.40
2019-03-28T08:45:44.180Z,52.80
2019-03-28T08:49:49.620Z,52.20
2019-03-28T08:53:55.010Z,52.40
2019-03-28T08:58:00.367Z,52.80
2019-03-28T09:02:05.963Z,52.40
2019-03-28T09:06:11.662Z,51.10
2019-03-28T09:10:17.048Z,50.90
2019-03-28T09:14:22.334Z,49.70
2019-03-28T09:18:30.498Z,50.00
2019-03-28T09:22:38.851Z,49.40
2019-03-28T09:26:43.080Z,48.90
2019-03-28T09:30:49.747Z,50.20
2019-03-28T09:34:55.875Z,51.00
2019-03-28T09:39:01.259Z,50.60
2019-03-28T09:43:08.600Z,50.20
2019-03-28T09:47:13.989Z,49.20
2019-03-28T09:51:19.676Z,49.70
2019-03-28T09:55:25.115Z,49.40
2019-03-28T09:59:30.468Z,48.80
2019-03-28T10:03:35.848Z,49.60
2019-03-28T10:07:41.208Z,48.60
2019-03-28T10:11:47.012Z,50.10
2019-03-28T10:15:52.284Z,48.90
2019-03-28T10:19:57.644Z,48.80
2019-03-28T10:24:03.009Z,49.30
2019-03-28T10:28:10.170Z,49.50
2019-03-28T10:32:15.616Z,51.10
2019-03-28T10:36:21.054Z,49.90
2019-03-28T10:40:26.451Z,47.90
2019-03-28T10:44:31.893Z,46.80
2019-03-28T10:48:37.375Z,46.50
2019-03-28T10:52:43.128Z,47.80
2019-03-28T10:56:51.999Z,45.50
2019-03-28T11:00:56.368Z,44.30
2019-03-28T11:05:02.067Z,44.60
2019-03-28T11:09:08.616Z,42.90
2019-03-28T11:13:14.256Z,41.80
2019-03-28T11:17:19.720Z,41.50
2019-03-28T11:21:25.209Z,40.80
2019-03-28T11:25:30.675Z,39.20
2019-03-28T11:29:36.067Z,39.40
2019-03-28T11:33:41.476Z,38.40
2019-03-28T11:37:46.957Z,37.50
2019-03-28T11:41:52.471Z,37.70
2019-03-28T11:45:58.221Z,38.30
2019-03-28T11:50:04.233Z,38.90
2019-03-28T11:54:10.680Z,39.00
2019-03-28T11:58:16.136Z,38.90
2019-03-28T12:02:21.694Z,38.70
2019-03-28T12:06:27.218Z,37.70
2019-03-28T12:10:32.626Z,39.70
2019-03-28T12:14:38.133Z,40.80
2019-03-28T12:18:43.682Z,40.40
2019-03-28T12:22:49.548Z,39.90
2019-03-28T12:26:54.933Z,40.70
2019-03-28T12:31:00.252Z,38.80
2019-03-28T12:35:06.944Z,38.30
2019-03-28T12:39:15.482Z,39.20
2019-03-28T12:43:20.123Z,40.30
2019-03-28T12:47:25.533Z,39.20
2019-03-28T12:51:31.036Z,39.70
2019-03-28T12:55:36.581Z,40.70
2019-03-28T12:59:41.995Z,39.30
2019-03-28T13:03:47.481Z,39.10
2019-03-28T13:07:53.087Z,38.50
2019-03-28T13:11:58.540Z,38.40
2019-03-28T13:16:04.012Z,38.30
2019-03-28T13:20:10.411Z,38.50
2019-03-28T13:24:15.814Z,38.20
2019-03-28T13:28:21.228Z,38.40
2019-03-28T13:32:40.552Z,38.00
2019-03-28T13:36:33.960Z,37.10
2019-03-28T13:40:39.356Z,36.30
2019-03-28T13:44:44.885Z,37.10
2019-03-28T13:48:50.365Z,37.30
2019-03-28T13:52:55.899Z,37.90
2019-03-28T13:57:01.324Z,37.50
2019-03-28T14:01:06.777Z,37.70
2019-03-28T14:05:13.221Z,37.70
2019-03-28T14:09:18.839Z,38.30
2019-03-28T14:13:24.260Z,38.60
2019-03-28T14:17:29.708Z,39.50
2019-03-28T14:21:35.111Z,39.20
2019-03-28T14:25:40.507Z,39.00
2019-03-28T14:29:45.824Z,38.80
2019-03-28T14:33:51.319Z,39.10
2019-03-28T14:37:56.612Z,38.40
2019-03-28T14:42:02.091Z,38.10
2019-03-28T14:46:07.564Z,38.50
2019-03-28T14:50:13.395Z,38.10
2019-03-28T14:54:18.944Z,38.00
2019-03-28T14:58:24.616Z,38.80
2019-03-28T15:02:30.071Z,38.80
2019-03-28T15:06:35.541Z,39.00
2019-03-28T15:10:41.327Z,38.90
2019-03-28T15:14:46.834Z,37.60
2019-03-28T15:18:52.157Z,37.50
2019-03-28T15:22:57.558Z,38.50
2019-03-28T15:27:03.088Z,38.60
2019-03-28T15:31:08.646Z,38.50
2019-03-28T15:35:14.319Z,38.80
2019-03-28T15:39:19.727Z,38.80
2019-03-28T15:43:25.216Z,39.60
2019-03-28T15:47:30.747Z,39.50
2019-03-28T15:51:37.620Z,39.40
2019-03-28T15:55:43.309Z,38.90
2019-03-28T15:59:48.716Z,38.60
2019-03-28T16:03:54.201Z,38.60
2019-03-28T16:08:01.042Z,37.90
2019-03-28T16:12:06.905Z,37.70
2019-03-28T16:16:12.364Z,38.10
2019-03-28T16:20:18.105Z,37.90
2019-03-28T16:24:23.670Z,37.70
2019-03-28T16:28:29.252Z,37.70
2019-03-28T16:32:34.693Z,37.80
2019-03-28T16:36:40.086Z,38.40
2019-03-28T16:40:45.589Z,39.40
2019-03-28T16:44:51.901Z,40.10
2019-03-28T16:48:57.284Z,40.50
2019-03-28T16:53:02.771Z,39.40
2019-03-28T16:57:08.245Z,39.70
2019-03-28T17:01:13.797Z,39.50
2019-03-28T17:05:19.268Z,39.90
2019-03-28T17:09:26.024Z,40.10
2019-03-28T17:13:31.435Z,40.80
2019-03-28T17:17:38.442Z,41.30
2019-03-28T17:21:44.200Z,42.00
2019-03-28T17:25:49.610Z,42.20
2019-03-28T17:29:54.989Z,42.90
2019-03-28T17:34:00.453Z,43.40
2019-03-28T17:38:05.926Z,43.80
2019-03-28T17:42:11.432Z,44.10
2019-03-28T17:46:18.149Z,44.60
2019-03-28T17:50:24.252Z,44.90
2019-03-28T17:54:29.719Z,45.10
2019-03-28T17:58:35.123Z,45.70
2019-03-28T18:02:40.604Z,46.30
2019-03-28T18:06:47.251Z,47.20
2019-03-28T18:10:52.789Z,47.90
2019-03-28T18:14:58.179Z,48.30
2019-03-28T18:19:03.654Z,48.80
2019-03-28T18:23:09.324Z,49.20
2019-03-28T18:27:14.833Z,49.80
2019-03-28T18:31:20.263Z,50.80
2019-03-28T18:35:25.740Z,51.60
2019-03-28T18:39:31.211Z,52.10
2019-03-28T18:43:36.703Z,52.50
2019-03-28T18:47:42.101Z,52.80
2019-03-28T18:51:47.584Z,53.60
2019-03-28T18:55:52.973Z,53.90
2019-03-28T18:59:58.592Z,54.20
2019-03-28T19:04:04.068Z,54.50
2019-03-28T19:08:09.577Z,54.90
2019-03-28T19:12:15.006Z,54.70
2019-03-28T19:16:21.887Z,55.20
2019-03-28T19:20:27.639Z,55.10
2019-03-28T19:24:35.268Z,55.20
2019-03-28T19:28:40.664Z,55.40
2019-03-28T19:32:46.178Z,55.60
2019-03-28T19:36:55.763Z,55.60
2019-03-28T19:41:01.684Z,55.80
2019-03-28T19:45:08.491Z,55.90
2019-03-28T19:49:14.000Z,56.10
2019-03-28T19:53:19.676Z,56.30
2019-03-28T19:57:25.220Z,56.40
2019-03-28T20:01:31.144Z,56.40
2019-03-28T20:05:46.817Z,56.50
2019-03-28T20:09:44.203Z,56.50
2019-03-28T20:13:50.572Z,56.70
2019-03-28T20:17:56.072Z,56.90
2019-03-28T20:22:02.415Z,57.10
2019-03-28T20:26:08.308Z,58.00
2019-03-28T20:30:15.087Z,57.40
2019-03-28T20:34:20.927Z,57.70
2019-03-28T20:38:27.451Z,57.50
2019-03-28T20:42:33.345Z,57.50
2019-03-28T20:46:40.794Z,57.90
2019-03-28T20:50:46.397Z,57.80
2019-03-28T20:54:52.042Z,58.90
2019-03-28T20:58:57.835Z,58.20
2019-03-28T21:03:03.741Z,58.20
2019-03-28T21:07:09.381Z,58.80
2019-03-28T21:11:15.920Z,59.10
2019-03-28T21:15:21.301Z,59.40
2019-03-28T21:19:26.625Z,59.20
2019-03-28T21:23:32.337Z,59.10
2019-03-28T21:27:37.863Z,59.10
2019-03-28T21:31:49.655Z,59.30
2019-03-28T21:35:50.667Z,59.50
2019-03-28T21:39:56.216Z,59.50
2019-03-28T21:44:01.799Z,59.50
2019-03-28T21:48:07.526Z,59.40
2019-03-28T21:52:14.213Z,59.10
2019-03-28T21:56:19.714Z,59.50
2019-03-28T22:00:25.208Z,60.00
2019-03-28T22:04:30.923Z,60.00
2019-03-28T22:08:36.432Z,60.00
2019-03-28T22:12:41.990Z,60.30
2019-03-28T22:16:49.780Z,60.30
2019-03-28T22:20:55.475Z,60.30
2019-03-28T22:25:01.044Z,60.20
2019-03-28T22:29:06.476Z,60.20
2019-03-28T22:33:11.938Z,60.30
2019-03-28T22:37:17.492Z,60.30
2019-03-28T22:41:23.232Z,60.30
2019-03-28T22:45:28.679Z,60.30
2019-03-28T22:49:34.037Z,60.50
2019-03-28T22:53:39.436Z,60.60
2019-03-28T22:57:44.880Z,60.70
2019-03-28T23:01:50.397Z,60.70
2019-03-28T23:05:56.780Z,60.60
2019-03-28T23:10:02.635Z,60.70
2019-03-28T23:14:08.071Z,61.00
2019-03-28T23:18:13.626Z,61.10
2019-03-28T23:22:19.466Z,61.10
2019-03-28T23:26:24.894Z,61.50
2019-03-28T23:30:30.337Z,62.10
2019-03-28T23:34:35.784Z,62.20
2019-03-28T23:38:41.158Z,62.10
2019-03-28T23:42:46.831Z,62.10
2019-03-28T23:46:52.351Z,62.40
2019-03-28T23:50:58.188Z,62.80
2019-03-28T23:55:04.897Z,62.90
2019-03-28T23:59:10.850Z,62.20
